sensor_id;sensor_type;location;lat;lon;timestamp;P1;durP1;ratioP1;P2;durP2;ratioP2
37851;SDS011;23691;52.486;4.650;2024-01-27T00:00:26;27.30;;;4.13;;
37851;SDS011;23691;52.486;4.650;2024-01-27T00:02:53;27.67;;;4.63;;
37851;SDS011;23691;52.486;4.650;2024-01-27T00:05:18;26.58;;;4.53;;
37851;SDS011;23691;52.486;4.650;2024-01-27T00:07:43;23.83;;;4.28;;
37851;SDS011;23691;52.486;4.650;2024-01-27T00:10:09;22.45;;;4.05;;
37851;SDS011;23691;52.486;4.650;2024-01-27T00:12:34;21.40;;;3.33;;
37851;SDS011;23691;52.486;4.650;2024-01-27T00:15:00;23.23;;;3.25;;
37851;SDS011;23691;52.486;4.650;2024-01-27T00:17:25;25.30;;;4.40;;
37851;SDS011;23691;52.486;4.650;2024-01-27T00:19:52;23.90;;;4.17;;
37851;SDS011;23691;52.486;4.650;2024-01-27T00:22:18;30.00;;;4.43;;
37851;SDS011;23691;52.486;4.650;2024-01-27T00:24:45;23.50;;;3.43;;
37851;SDS011;23691;52.486;4.650;2024-01-27T00:29:39;28.15;;;4.00;;
37851;SDS011;23691;52.486;4.650;2024-01-27T00:32:05;28.35;;;4.07;;
37851;SDS011;23691;52.486;4.650;2024-01-27T00:34:30;22.15;;;4.05;;
37851;SDS011;23691;52.486;4.650;2024-01-27T00:37:01;29.58;;;4.07;;
37851;SDS011;23691;52.486;4.650;2024-01-27T00:39:27;20.27;;;3.38;;
37851;SDS011;23691;52.486;4.650;2024-01-27T00:41:52;25.33;;;4.13;;
37851;SDS011;23691;52.486;4.650;2024-01-27T00:44:20;22.45;;;3.90;;
37851;SDS011;23691;52.486;4.650;2024-01-27T00:49:23;22.92;;;3.58;;
37851;SDS011;23691;52.486;4.650;2024-01-27T00:51:49;27.77;;;3.83;;
37851;SDS011;23691;52.486;4.650;2024-01-27T00:54:14;25.60;;;4.10;;
37851;SDS011;23691;52.486;4.650;2024-01-27T00:56:43;23.08;;;4.03;;
37851;SDS011;23691;52.486;4.650;2024-01-27T00:59:12;29.33;;;4.22;;
37851;SDS011;23691;52.486;4.650;2024-01-27T01:01:37;22.58;;;4.05;;
37851;SDS011;23691;52.486;4.650;2024-01-27T01:04:03;21.33;;;3.53;;
37851;SDS011;23691;52.486;4.650;2024-01-27T01:06:28;21.65;;;3.60;;
37851;SDS011;23691;52.486;4.650;2024-01-27T01:08:56;21.67;;;3.60;;
37851;SDS011;23691;52.486;4.650;2024-01-27T01:11:21;29.70;;;3.83;;
37851;SDS011;23691;52.486;4.650;2024-01-27T01:13:47;23.90;;;3.90;;
37851;SDS011;23691;52.486;4.650;2024-01-27T01:16:18;24.63;;;3.83;;
37851;SDS011;23691;52.486;4.650;2024-01-27T01:18:44;23.98;;;4.18;;
37851;SDS011;23691;52.486;4.650;2024-01-27T01:21:10;26.85;;;4.82;;
37851;SDS011;23691;52.486;4.650;2024-01-27T01:23:35;20.63;;;3.90;;
37851;SDS011;23691;52.486;4.650;2024-01-27T01:26:00;24.05;;;3.85;;
37851;SDS011;23691;52.486;4.650;2024-01-27T01:28:26;26.60;;;4.30;;
37851;SDS011;23691;52.486;4.650;2024-01-27T01:30:52;25.55;;;4.55;;
37851;SDS011;23691;52.486;4.650;2024-01-27T01:33:21;25.25;;;4.85;;
37851;SDS011;23691;52.486;4.650;2024-01-27T01:35:49;27.02;;;4.15;;
37851;SDS011;23691;52.486;4.650;2024-01-27T01:38:14;28.77;;;4.82;;
37851;SDS011;23691;52.486;4.650;2024-01-27T01:40:42;26.10;;;4.65;;
37851;SDS011;23691;52.486;4.650;2024-01-27T01:43:11;21.10;;;4.25;;
37851;SDS011;23691;52.486;4.650;2024-01-27T01:45:40;25.33;;;4.78;;
37851;SDS011;23691;52.486;4.650;2024-01-27T01:48:05;24.65;;;4.82;;
37851;SDS011;23691;52.486;4.650;2024-01-27T01:50:34;36.08;;;5.05;;
37851;SDS011;23691;52.486;4.650;2024-01-27T01:53:01;26.27;;;5.05;;
37851;SDS011;23691;52.486;4.650;2024-01-27T01:55:27;27.55;;;4.57;;
37851;SDS011;23691;52.486;4.650;2024-01-27T01:57:52;29.50;;;5.22;;
37851;SDS011;23691;52.486;4.650;2024-01-27T02:00:26;28.48;;;4.65;;
37851;SDS011;23691;52.486;4.650;2024-01-27T02:02:51;30.63;;;4.90;;
37851;SDS011;23691;52.486;4.650;2024-01-27T02:05:17;23.98;;;4.50;;
37851;SDS011;23691;52.486;4.650;2024-01-27T02:07:43;26.80;;;4.63;;
37851;SDS011;23691;52.486;4.650;2024-01-27T02:10:12;26.63;;;4.38;;
37851;SDS011;23691;52.486;4.650;2024-01-27T02:12:48;28.27;;;4.68;;
37851;SDS011;23691;52.486;4.650;2024-01-27T02:15:16;23.65;;;3.85;;
37851;SDS011;23691;52.486;4.650;2024-01-27T02:17:42;26.42;;;4.35;;
37851;SDS011;23691;52.486;4.650;2024-01-27T02:20:07;28.00;;;5.28;;
37851;SDS011;23691;52.486;4.650;2024-01-27T02:22:36;27.90;;;4.63;;
37851;SDS011;23691;52.486;4.650;2024-01-27T02:25:13;26.10;;;4.93;;
37851;SDS011;23691;52.486;4.650;2024-01-27T02:27:46;24.95;;;4.85;;
37851;SDS011;23691;52.486;4.650;2024-01-27T02:30:11;25.65;;;4.53;;
37851;SDS011;23691;52.486;4.650;2024-01-27T02:32:37;26.55;;;4.45;;
37851;SDS011;23691;52.486;4.650;2024-01-27T02:35:02;26.95;;;4.75;;
37851;SDS011;23691;52.486;4.650;2024-01-27T02:37:29;25.63;;;4.40;;
37851;SDS011;23691;52.486;4.650;2024-01-27T02:39:54;32.45;;;4.35;;
37851;SDS011;23691;52.486;4.650;2024-01-27T02:42:20;30.30;;;5.15;;
37851;SDS011;23691;52.486;4.650;2024-01-27T02:44:45;23.25;;;4.72;;
37851;SDS011;23691;52.486;4.650;2024-01-27T02:47:11;27.42;;;4.88;;
37851;SDS011;23691;52.486;4.650;2024-01-27T02:49:36;31.25;;;4.80;;
37851;SDS011;23691;52.486;4.650;2024-01-27T02:52:07;29.30;;;4.90;;
37851;SDS011;23691;52.486;4.650;2024-01-27T02:54:34;30.90;;;5.10;;
37851;SDS011;23691;52.486;4.650;2024-01-27T02:56:59;28.85;;;5.00;;
37851;SDS011;23691;52.486;4.650;2024-01-27T02:59:27;25.38;;;4.53;;
37851;SDS011;23691;52.486;4.650;2024-01-27T03:01:55;30.63;;;4.13;;
37851;SDS011;23691;52.486;4.650;2024-01-27T03:04:20;21.00;;;4.03;;
37851;SDS011;23691;52.486;4.650;2024-01-27T03:06:48;26.70;;;4.03;;
37851;SDS011;23691;52.486;4.650;2024-01-27T03:09:13;26.42;;;4.10;;
37851;SDS011;23691;52.486;4.650;2024-01-27T03:11:45;24.63;;;3.15;;
37851;SDS011;23691;52.486;4.650;2024-01-27T03:14:12;22.17;;;3.27;;
37851;SDS011;23691;52.486;4.650;2024-01-27T03:16:38;24.38;;;3.97;;
37851;SDS011;23691;52.486;4.650;2024-01-27T03:19:09;29.77;;;3.75;;
37851;SDS011;23691;52.486;4.650;2024-01-27T03:21:38;25.45;;;3.95;;
37851;SDS011;23691;52.486;4.650;2024-01-27T03:24:03;26.15;;;4.32;;
37851;SDS011;23691;52.486;4.650;2024-01-27T03:26:29;26.40;;;3.58;;
37851;SDS011;23691;52.486;4.650;2024-01-27T03:28:57;25.92;;;4.20;;
37851;SDS011;23691;52.486;4.650;2024-01-27T03:31:23;24.98;;;4.28;;
37851;SDS011;23691;52.486;4.650;2024-01-27T03:33:48;23.73;;;3.75;;
37851;SDS011;23691;52.486;4.650;2024-01-27T03:36:14;25.27;;;3.65;;
37851;SDS011;23691;52.486;4.650;2024-01-27T03:38:40;25.10;;;4.25;;
37851;SDS011;23691;52.486;4.650;2024-01-27T03:41:06;27.98;;;3.72;;
37851;SDS011;23691;52.486;4.650;2024-01-27T03:43:32;32.60;;;4.40;;
37851;SDS011;23691;52.486;4.650;2024-01-27T03:45:58;25.98;;;4.30;;
37851;SDS011;23691;52.486;4.650;2024-01-27T03:48:27;31.45;;;3.83;;
37851;SDS011;23691;52.486;4.650;2024-01-27T03:50:58;25.42;;;4.15;;
37851;SDS011;23691;52.486;4.650;2024-01-27T03:53:23;28.27;;;4.03;;
37851;SDS011;23691;52.486;4.650;2024-01-27T03:55:48;26.23;;;3.75;;
37851;SDS011;23691;52.486;4.650;2024-01-27T03:58:14;33.45;;;4.40;;
37851;SDS011;23691;52.486;4.650;2024-01-27T04:00:39;25.60;;;3.97;;
37851;SDS011;23691;52.486;4.650;2024-01-27T04:05:35;23.65;;;3.42;;
37851;SDS011;23691;52.486;4.650;2024-01-27T04:08:08;25.40;;;3.50;;
37851;SDS011;23691;52.486;4.650;2024-01-27T04:10:33;22.52;;;3.17;;
37851;SDS011;23691;52.486;4.650;2024-01-27T04:12:59;29.60;;;3.53;;
37851;SDS011;23691;52.486;4.650;2024-01-27T04:15:24;24.85;;;3.60;;
37851;SDS011;23691;52.486;4.650;2024-01-27T04:17:53;25.40;;;4.05;;
37851;SDS011;23691;52.486;4.650;2024-01-27T04:20:19;27.42;;;3.58;;
37851;SDS011;23691;52.486;4.650;2024-01-27T04:22:51;20.95;;;3.22;;
37851;SDS011;23691;52.486;4.650;2024-01-27T04:25:16;25.42;;;4.40;;
37851;SDS011;23691;52.486;4.650;2024-01-27T04:27:44;26.52;;;3.42;;
37851;SDS011;23691;52.486;4.650;2024-01-27T04:30:10;27.35;;;3.38;;
37851;SDS011;23691;52.486;4.650;2024-01-27T04:32:39;26.75;;;3.63;;
37851;SDS011;23691;52.486;4.650;2024-01-27T04:35:08;24.75;;;4.05;;
37851;SDS011;23691;52.486;4.650;2024-01-27T04:37:34;25.38;;;3.95;;
37851;SDS011;23691;52.486;4.650;2024-01-27T04:40:00;23.85;;;3.70;;
37851;SDS011;23691;52.486;4.650;2024-01-27T04:42:25;25.10;;;3.80;;
37851;SDS011;23691;52.486;4.650;2024-01-27T04:44:53;23.15;;;3.55;;
37851;SDS011;23691;52.486;4.650;2024-01-27T04:47:19;24.65;;;3.38;;
37851;SDS011;23691;52.486;4.650;2024-01-27T04:49:44;24.88;;;3.88;;
37851;SDS011;23691;52.486;4.650;2024-01-27T04:52:11;22.75;;;3.83;;
37851;SDS011;23691;52.486;4.650;2024-01-27T04:54:36;31.33;;;4.10;;
37851;SDS011;23691;52.486;4.650;2024-01-27T04:57:11;30.23;;;4.00;;
37851;SDS011;23691;52.486;4.650;2024-01-27T04:59:36;29.23;;;3.90;;
37851;SDS011;23691;52.486;4.650;2024-01-27T05:02:02;27.52;;;3.60;;
37851;SDS011;23691;52.486;4.650;2024-01-27T05:04:27;27.10;;;4.60;;
37851;SDS011;23691;52.486;4.650;2024-01-27T05:06:53;19.15;;;3.45;;
37851;SDS011;23691;52.486;4.650;2024-01-27T05:09:19;24.90;;;3.30;;
37851;SDS011;23691;52.486;4.650;2024-01-27T05:11:48;27.75;;;3.75;;
37851;SDS011;23691;52.486;4.650;2024-01-27T05:14:16;25.88;;;3.80;;
37851;SDS011;23691;52.486;4.650;2024-01-27T05:16:42;24.15;;;3.45;;
37851;SDS011;23691;52.486;4.650;2024-01-27T05:19:07;26.30;;;4.00;;
37851;SDS011;23691;52.486;4.650;2024-01-27T05:21:33;28.60;;;4.43;;
37851;SDS011;23691;52.486;4.650;2024-01-27T05:24:00;29.27;;;4.10;;
37851;SDS011;23691;52.486;4.650;2024-01-27T05:26:26;27.08;;;4.18;;
37851;SDS011;23691;52.486;4.650;2024-01-27T05:28:52;25.55;;;3.65;;
37851;SDS011;23691;52.486;4.650;2024-01-27T05:31:18;26.50;;;4.10;;
37851;SDS011;23691;52.486;4.650;2024-01-27T05:33:43;24.73;;;3.67;;
37851;SDS011;23691;52.486;4.650;2024-01-27T05:36:10;26.98;;;4.75;;
37851;SDS011;23691;52.486;4.650;2024-01-27T05:38:37;37.60;;;4.57;;
37851;SDS011;23691;52.486;4.650;2024-01-27T05:41:04;22.15;;;4.07;;
37851;SDS011;23691;52.486;4.650;2024-01-27T05:43:31;31.48;;;4.53;;
37851;SDS011;23691;52.486;4.650;2024-01-27T05:45:56;25.05;;;4.25;;
37851;SDS011;23691;52.486;4.650;2024-01-27T05:48:22;24.00;;;4.18;;
37851;SDS011;23691;52.486;4.650;2024-01-27T05:50:57;28.88;;;4.32;;
37851;SDS011;23691;52.486;4.650;2024-01-27T05:53:23;28.00;;;4.63;;
37851;SDS011;23691;52.486;4.650;2024-01-27T05:55:50;25.45;;;4.28;;
37851;SDS011;23691;52.486;4.650;2024-01-27T05:58:16;26.42;;;5.35;;
37851;SDS011;23691;52.486;4.650;2024-01-27T06:00:44;30.38;;;3.90;;
37851;SDS011;23691;52.486;4.650;2024-01-27T06:03:12;27.92;;;4.53;;
37851;SDS011;23691;52.486;4.650;2024-01-27T06:05:37;28.90;;;4.40;;
37851;SDS011;23691;52.486;4.650;2024-01-27T06:08:12;21.50;;;4.45;;
37851;SDS011;23691;52.486;4.650;2024-01-27T06:10:40;25.23;;;4.57;;
37851;SDS011;23691;52.486;4.650;2024-01-27T06:13:09;30.30;;;4.75;;
37851;SDS011;23691;52.486;4.650;2024-01-27T06:15:42;27.90;;;5.03;;
37851;SDS011;23691;52.486;4.650;2024-01-27T06:18:07;22.30;;;3.85;;
37851;SDS011;23691;52.486;4.650;2024-01-27T06:20:33;32.30;;;4.68;;
37851;SDS011;23691;52.486;4.650;2024-01-27T06:22:59;24.35;;;4.30;;
37851;SDS011;23691;52.486;4.650;2024-01-27T06:25:25;26.95;;;4.93;;
37851;SDS011;23691;52.486;4.650;2024-01-27T06:27:50;20.88;;;4.32;;
37851;SDS011;23691;52.486;4.650;2024-01-27T06:30:23;25.70;;;3.95;;
37851;SDS011;23691;52.486;4.650;2024-01-27T06:32:49;26.55;;;4.03;;
37851;SDS011;23691;52.486;4.650;2024-01-27T06:35:18;30.20;;;5.50;;
37851;SDS011;23691;52.486;4.650;2024-01-27T06:37:46;23.42;;;3.67;;
37851;SDS011;23691;52.486;4.650;2024-01-27T06:40:23;32.38;;;4.97;;
37851;SDS011;23691;52.486;4.650;2024-01-27T06:42:49;27.02;;;4.78;;
37851;SDS011;23691;52.486;4.650;2024-01-27T06:45:14;28.98;;;4.30;;
37851;SDS011;23691;52.486;4.650;2024-01-27T06:47:39;31.40;;;4.85;;
37851;SDS011;23691;52.486;4.650;2024-01-27T06:50:05;26.35;;;4.25;;
37851;SDS011;23691;52.486;4.650;2024-01-27T06:52:31;37.47;;;5.10;;
37851;SDS011;23691;52.486;4.650;2024-01-27T06:54:57;24.55;;;3.85;;
37851;SDS011;23691;52.486;4.650;2024-01-27T06:57:22;28.63;;;4.93;;
37851;SDS011;23691;52.486;4.650;2024-01-27T06:59:49;26.92;;;3.97;;
37851;SDS011;23691;52.486;4.650;2024-01-27T07:02:24;29.52;;;4.85;;
37851;SDS011;23691;52.486;4.650;2024-01-27T07:04:51;25.20;;;4.22;;
37851;SDS011;23691;52.486;4.650;2024-01-27T07:07:17;25.45;;;4.45;;
37851;SDS011;23691;52.486;4.650;2024-01-27T07:09:43;24.88;;;4.85;;
37851;SDS011;23691;52.486;4.650;2024-01-27T07:12:08;30.23;;;5.38;;
37851;SDS011;23691;52.486;4.650;2024-01-27T07:14:34;30.58;;;4.85;;
37851;SDS011;23691;52.486;4.650;2024-01-27T07:17:02;28.38;;;5.22;;
37851;SDS011;23691;52.486;4.650;2024-01-27T07:19:29;36.65;;;5.95;;
37851;SDS011;23691;52.486;4.650;2024-01-27T07:21:54;28.90;;;5.63;;
37851;SDS011;23691;52.486;4.650;2024-01-27T07:24:20;28.65;;;5.03;;
37851;SDS011;23691;52.486;4.650;2024-01-27T07:26:45;24.38;;;4.32;;
37851;SDS011;23691;52.486;4.650;2024-01-27T07:29:10;31.02;;;4.95;;
37851;SDS011;23691;52.486;4.650;2024-01-27T07:31:36;28.92;;;4.68;;
37851;SDS011;23691;52.486;4.650;2024-01-27T07:34:01;29.58;;;4.93;;
37851;SDS011;23691;52.486;4.650;2024-01-27T07:36:27;30.85;;;5.72;;
37851;SDS011;23691;52.486;4.650;2024-01-27T07:38:58;33.25;;;5.55;;
37851;SDS011;23691;52.486;4.650;2024-01-27T07:41:23;31.25;;;5.07;;
37851;SDS011;23691;52.486;4.650;2024-01-27T07:43:49;34.53;;;6.15;;
37851;SDS011;23691;52.486;4.650;2024-01-27T07:46:14;33.80;;;6.00;;
37851;SDS011;23691;52.486;4.650;2024-01-27T07:48:40;28.95;;;5.03;;
37851;SDS011;23691;52.486;4.650;2024-01-27T07:51:06;28.50;;;5.53;;
37851;SDS011;23691;52.486;4.650;2024-01-27T07:53:31;29.70;;;5.85;;
37851;SDS011;23691;52.486;4.650;2024-01-27T07:55:56;34.75;;;5.47;;
37851;SDS011;23691;52.486;4.650;2024-01-27T07:58:22;28.65;;;4.95;;
37851;SDS011;23691;52.486;4.650;2024-01-27T08:00:47;29.63;;;5.50;;
37851;SDS011;23691;52.486;4.650;2024-01-27T08:03:12;29.00;;;5.03;;
37851;SDS011;23691;52.486;4.650;2024-01-27T08:05:38;27.90;;;5.32;;
37851;SDS011;23691;52.486;4.650;2024-01-27T08:08:03;27.67;;;5.22;;
37851;SDS011;23691;52.486;4.650;2024-01-27T08:10:29;32.72;;;5.43;;
37851;SDS011;23691;52.486;4.650;2024-01-27T08:12:55;32.05;;;5.15;;
37851;SDS011;23691;52.486;4.650;2024-01-27T08:15:20;27.90;;;5.00;;
37851;SDS011;23691;52.486;4.650;2024-01-27T08:17:45;30.17;;;6.07;;
37851;SDS011;23691;52.486;4.650;2024-01-27T08:20:11;34.22;;;5.72;;
37851;SDS011;23691;52.486;4.650;2024-01-27T08:22:37;28.77;;;5.63;;
37851;SDS011;23691;52.486;4.650;2024-01-27T08:25:02;27.63;;;4.82;;
37851;SDS011;23691;52.486;4.650;2024-01-27T08:27:28;31.38;;;5.35;;
37851;SDS011;23691;52.486;4.650;2024-01-27T08:29:53;27.70;;;5.55;;
37851;SDS011;23691;52.486;4.650;2024-01-27T08:32:19;29.65;;;5.10;;
37851;SDS011;23691;52.486;4.650;2024-01-27T08:34:44;29.98;;;4.65;;
37851;SDS011;23691;52.486;4.650;2024-01-27T08:37:17;29.02;;;4.75;;
37851;SDS011;23691;52.486;4.650;2024-01-27T08:39:44;27.27;;;5.18;;
37851;SDS011;23691;52.486;4.650;2024-01-27T08:42:10;31.25;;;4.88;;
37851;SDS011;23691;52.486;4.650;2024-01-27T08:44:36;36.00;;;5.47;;
37851;SDS011;23691;52.486;4.650;2024-01-27T08:47:01;33.67;;;5.47;;
37851;SDS011;23691;52.486;4.650;2024-01-27T08:49:26;26.80;;;4.53;;
37851;SDS011;23691;52.486;4.650;2024-01-27T08:51:52;33.60;;;5.03;;
37851;SDS011;23691;52.486;4.650;2024-01-27T08:54:17;32.33;;;5.20;;
37851;SDS011;23691;52.486;4.650;2024-01-27T08:56:42;25.52;;;4.90;;
37851;SDS011;23691;52.486;4.650;2024-01-27T08:59:08;25.50;;;4.93;;
37851;SDS011;23691;52.486;4.650;2024-01-27T09:01:33;33.38;;;5.20;;
37851;SDS011;23691;52.486;4.650;2024-01-27T09:03:58;31.92;;;4.88;;
37851;SDS011;23691;52.486;4.650;2024-01-27T09:06:24;32.15;;;5.28;;
37851;SDS011;23691;52.486;4.650;2024-01-27T09:08:49;29.55;;;5.10;;
37851;SDS011;23691;52.486;4.650;2024-01-27T09:11:14;32.92;;;5.22;;
37851;SDS011;23691;52.486;4.650;2024-01-27T09:13:40;30.33;;;5.18;;
37851;SDS011;23691;52.486;4.650;2024-01-27T09:16:05;27.70;;;5.07;;
37851;SDS011;23691;52.486;4.650;2024-01-27T09:18:31;28.02;;;5.32;;
37851;SDS011;23691;52.486;4.650;2024-01-27T09:20:56;27.35;;;4.45;;
37851;SDS011;23691;52.486;4.650;2024-01-27T09:23:21;28.00;;;4.55;;
37851;SDS011;23691;52.486;4.650;2024-01-27T09:25:47;28.58;;;4.55;;
37851;SDS011;23691;52.486;4.650;2024-01-27T09:28:12;30.35;;;4.95;;
37851;SDS011;23691;52.486;4.650;2024-01-27T09:30:39;28.75;;;4.90;;
37851;SDS011;23691;52.486;4.650;2024-01-27T09:33:04;29.20;;;4.90;;
37851;SDS011;23691;52.486;4.650;2024-01-27T09:35:29;31.85;;;4.97;;
37851;SDS011;23691;52.486;4.650;2024-01-27T09:37:55;30.45;;;5.47;;
37851;SDS011;23691;52.486;4.650;2024-01-27T09:40:20;28.38;;;5.15;;
37851;SDS011;23691;52.486;4.650;2024-01-27T09:42:52;27.00;;;4.60;;
37851;SDS011;23691;52.486;4.650;2024-01-27T09:45:20;27.80;;;5.10;;
37851;SDS011;23691;52.486;4.650;2024-01-27T09:47:47;33.25;;;4.70;;
37851;SDS011;23691;52.486;4.650;2024-01-27T09:50:13;32.97;;;4.82;;
37851;SDS011;23691;52.486;4.650;2024-01-27T09:52:40;33.70;;;5.30;;
37851;SDS011;23691;52.486;4.650;2024-01-27T09:55:05;28.70;;;5.63;;
37851;SDS011;23691;52.486;4.650;2024-01-27T09:57:32;28.67;;;5.70;;
37851;SDS011;23691;52.486;4.650;2024-01-27T09:59:57;28.83;;;5.95;;
37851;SDS011;23691;52.486;4.650;2024-01-27T10:02:24;28.23;;;6.20;;
37851;SDS011;23691;52.486;4.650;2024-01-27T10:04:49;33.15;;;5.93;;
37851;SDS011;23691;52.486;4.650;2024-01-27T10:07:15;24.02;;;6.40;;
37851;SDS011;23691;52.486;4.650;2024-01-27T10:09:41;31.55;;;5.25;;
37851;SDS011;23691;52.486;4.650;2024-01-27T10:12:08;33.72;;;6.53;;
37851;SDS011;23691;52.486;4.650;2024-01-27T10:14:38;33.45;;;6.85;;
37851;SDS011;23691;52.486;4.650;2024-01-27T10:17:11;28.13;;;6.47;;
37851;SDS011;23691;52.486;4.650;2024-01-27T10:19:36;26.17;;;5.93;;
37851;SDS011;23691;52.486;4.650;2024-01-27T10:22:02;34.47;;;6.65;;
37851;SDS011;23691;52.486;4.650;2024-01-27T10:24:28;32.05;;;6.47;;
37851;SDS011;23691;52.486;4.650;2024-01-27T10:27:00;36.20;;;7.25;;
37851;SDS011;23691;52.486;4.650;2024-01-27T10:29:26;29.77;;;7.10;;
37851;SDS011;23691;52.486;4.650;2024-01-27T10:31:52;30.33;;;7.47;;
37851;SDS011;23691;52.486;4.650;2024-01-27T10:34:19;34.65;;;7.28;;
37851;SDS011;23691;52.486;4.650;2024-01-27T10:36:45;29.77;;;6.53;;
37851;SDS011;23691;52.486;4.650;2024-01-27T10:39:18;25.92;;;6.13;;
37851;SDS011;23691;52.486;4.650;2024-01-27T10:41:46;31.75;;;7.63;;
37851;SDS011;23691;52.486;4.650;2024-01-27T10:44:13;33.78;;;6.95;;
37851;SDS011;23691;52.486;4.650;2024-01-27T10:46:44;34.75;;;7.40;;
37851;SDS011;23691;52.486;4.650;2024-01-27T10:49:15;34.13;;;7.18;;
37851;SDS011;23691;52.486;4.650;2024-01-27T10:52:15;30.88;;;6.35;;
37851;SDS011;23691;52.486;4.650;2024-01-27T10:54:35;26.42;;;7.03;;
37851;SDS011;23691;52.486;4.650;2024-01-27T10:57:03;33.30;;;6.63;;
37851;SDS011;23691;52.486;4.650;2024-01-27T10:59:28;30.40;;;6.95;;
37851;SDS011;23691;52.486;4.650;2024-01-27T11:01:56;32.92;;;7.35;;
37851;SDS011;23691;52.486;4.650;2024-01-27T11:04:23;36.42;;;7.10;;
37851;SDS011;23691;52.486;4.650;2024-01-27T11:06:49;31.42;;;6.53;;
37851;SDS011;23691;52.486;4.650;2024-01-27T11:09:15;28.50;;;6.10;;
37851;SDS011;23691;52.486;4.650;2024-01-27T11:11:42;28.42;;;5.63;;
37851;SDS011;23691;52.486;4.650;2024-01-27T11:14:10;27.05;;;5.35;;
37851;SDS011;23691;52.486;4.650;2024-01-27T11:16:36;28.73;;;6.03;;
37851;SDS011;23691;52.486;4.650;2024-01-27T11:19:08;34.88;;;6.50;;
37851;SDS011;23691;52.486;4.650;2024-01-27T11:21:35;29.90;;;5.55;;
37851;SDS011;23691;52.486;4.650;2024-01-27T11:24:11;30.90;;;5.50;;
37851;SDS011;23691;52.486;4.650;2024-01-27T11:26:37;23.80;;;5.25;;
37851;SDS011;23691;52.486;4.650;2024-01-27T11:29:06;33.70;;;6.10;;
37851;SDS011;23691;52.486;4.650;2024-01-27T11:31:43;33.03;;;6.03;;
37851;SDS011;23691;52.486;4.650;2024-01-27T11:34:10;35.80;;;5.75;;
37851;SDS011;23691;52.486;4.650;2024-01-27T11:36:42;27.92;;;5.50;;
37851;SDS011;23691;52.486;4.650;2024-01-27T11:39:22;30.65;;;4.28;;
37851;SDS011;23691;52.486;4.650;2024-01-27T11:41:49;30.02;;;5.07;;
37851;SDS011;23691;52.486;4.650;2024-01-27T11:44:15;28.58;;;5.10;;
37851;SDS011;23691;52.486;4.650;2024-01-27T11:46:42;25.77;;;4.90;;
37851;SDS011;23691;52.486;4.650;2024-01-27T11:49:12;29.70;;;5.07;;
37851;SDS011;23691;52.486;4.650;2024-01-27T11:51:40;27.63;;;5.82;;
37851;SDS011;23691;52.486;4.650;2024-01-27T11:54:05;25.95;;;4.60;;
37851;SDS011;23691;52.486;4.650;2024-01-27T11:56:30;27.92;;;4.55;;
37851;SDS011;23691;52.486;4.650;2024-01-27T11:58:56;25.05;;;4.50;;
37851;SDS011;23691;52.486;4.650;2024-01-27T12:01:24;25.70;;;4.35;;
37851;SDS011;23691;52.486;4.650;2024-01-27T12:03:53;37.90;;;5.00;;
37851;SDS011;23691;52.486;4.650;2024-01-27T12:06:19;24.55;;;4.57;;
37851;SDS011;23691;52.486;4.650;2024-01-27T12:08:47;29.40;;;5.10;;
37851;SDS011;23691;52.486;4.650;2024-01-27T12:11:14;32.08;;;5.18;;
37851;SDS011;23691;52.486;4.650;2024-01-27T12:13:45;24.55;;;4.78;;
37851;SDS011;23691;52.486;4.650;2024-01-27T12:16:13;32.33;;;5.60;;
37851;SDS011;23691;52.486;4.650;2024-01-27T12:18:38;24.42;;;4.78;;
37851;SDS011;23691;52.486;4.650;2024-01-27T12:21:04;24.52;;;4.72;;
37851;SDS011;23691;52.486;4.650;2024-01-27T12:23:29;23.40;;;4.68;;
37851;SDS011;23691;52.486;4.650;2024-01-27T12:25:55;26.83;;;4.63;;
37851;SDS011;23691;52.486;4.650;2024-01-27T12:28:24;28.00;;;5.15;;
37851;SDS011;23691;52.486;4.650;2024-01-27T12:30:52;25.20;;;5.07;;
37851;SDS011;23691;52.486;4.650;2024-01-27T12:33:18;22.48;;;4.03;;
37851;SDS011;23691;52.486;4.650;2024-01-27T12:35:49;25.23;;;4.43;;
37851;SDS011;23691;52.486;4.650;2024-01-27T12:38:17;24.30;;;4.43;;
37851;SDS011;23691;52.486;4.650;2024-01-27T12:40:42;29.33;;;4.67;;
37851;SDS011;23691;52.486;4.650;2024-01-27T12:43:10;28.35;;;4.80;;
37851;SDS011;23691;52.486;4.650;2024-01-27T12:45:36;31.25;;;5.25;;
37851;SDS011;23691;52.486;4.650;2024-01-27T12:48:02;32.42;;;5.55;;
37851;SDS011;23691;52.486;4.650;2024-01-27T12:50:30;33.10;;;5.95;;
37851;SDS011;23691;52.486;4.650;2024-01-27T12:52:55;25.20;;;4.15;;
37851;SDS011;23691;52.486;4.650;2024-01-27T12:55:21;31.33;;;4.65;;
37851;SDS011;23691;52.486;4.650;2024-01-27T12:57:46;26.65;;;4.88;;
37851;SDS011;23691;52.486;4.650;2024-01-27T13:00:12;30.90;;;4.97;;
37851;SDS011;23691;52.486;4.650;2024-01-27T13:02:40;29.00;;;4.70;;
37851;SDS011;23691;52.486;4.650;2024-01-27T13:05:08;24.80;;;4.50;;
37851;SDS011;23691;52.486;4.650;2024-01-27T13:07:34;30.70;;;4.85;;
37851;SDS011;23691;52.486;4.650;2024-01-27T13:10:00;32.13;;;5.57;;
37851;SDS011;23691;52.486;4.650;2024-01-27T13:12:25;30.67;;;5.05;;
37851;SDS011;23691;52.486;4.650;2024-01-27T13:14:50;28.00;;;5.38;;
37851;SDS011;23691;52.486;4.650;2024-01-27T13:17:16;30.80;;;5.20;;
37851;SDS011;23691;52.486;4.650;2024-01-27T13:19:43;28.42;;;5.30;;
37851;SDS011;23691;52.486;4.650;2024-01-27T13:22:10;34.78;;;5.80;;
37851;SDS011;23691;52.486;4.650;2024-01-27T13:24:36;33.97;;;5.05;;
37851;SDS011;23691;52.486;4.650;2024-01-27T13:27:04;31.13;;;5.25;;
37851;SDS011;23691;52.486;4.650;2024-01-27T13:29:30;30.08;;;5.20;;
37851;SDS011;23691;52.486;4.650;2024-01-27T13:31:57;28.88;;;5.38;;
37851;SDS011;23691;52.486;4.650;2024-01-27T13:34:23;28.23;;;5.25;;
37851;SDS011;23691;52.486;4.650;2024-01-27T13:36:49;22.73;;;6.13;;
37851;SDS011;23691;52.486;4.650;2024-01-27T13:39:14;27.50;;;5.10;;
37851;SDS011;23691;52.486;4.650;2024-01-27T13:41:40;30.73;;;5.82;;
37851;SDS011;23691;52.486;4.650;2024-01-27T13:44:05;28.20;;;5.35;;
37851;SDS011;23691;52.486;4.650;2024-01-27T13:46:31;34.88;;;5.90;;
37851;SDS011;23691;52.486;4.650;2024-01-27T13:48:56;27.42;;;5.43;;
37851;SDS011;23691;52.486;4.650;2024-01-27T13:53:50;27.30;;;5.10;;
37851;SDS011;23691;52.486;4.650;2024-01-27T13:56:15;25.88;;;5.10;;
37851;SDS011;23691;52.486;4.650;2024-01-27T13:58:43;27.25;;;5.63;;
37851;SDS011;23691;52.486;4.650;2024-01-27T14:01:12;33.03;;;5.55;;
37851;SDS011;23691;52.486;4.650;2024-01-27T14:03:37;30.92;;;4.97;;
37851;SDS011;23691;52.486;4.650;2024-01-27T14:06:03;28.67;;;5.15;;
37851;SDS011;23691;52.486;4.650;2024-01-27T14:08:29;27.65;;;5.40;;
37851;SDS011;23691;52.486;4.650;2024-01-27T14:10:55;28.38;;;5.85;;
37851;SDS011;23691;52.486;4.650;2024-01-27T14:13:23;27.20;;;6.05;;
37851;SDS011;23691;52.486;4.650;2024-01-27T14:15:51;26.25;;;5.88;;
37851;SDS011;23691;52.486;4.650;2024-01-27T14:18:19;31.38;;;6.00;;
37851;SDS011;23691;52.486;4.650;2024-01-27T14:20:46;28.98;;;5.47;;
37851;SDS011;23691;52.486;4.650;2024-01-27T14:23:12;23.30;;;5.53;;
37851;SDS011;23691;52.486;4.650;2024-01-27T14:25:37;27.13;;;6.05;;
37851;SDS011;23691;52.486;4.650;2024-01-27T14:28:03;35.13;;;6.28;;
37851;SDS011;23691;52.486;4.650;2024-01-27T14:30:32;30.27;;;5.50;;
37851;SDS011;23691;52.486;4.650;2024-01-27T14:32:57;31.63;;;5.70;;
37851;SDS011;23691;52.486;4.650;2024-01-27T14:35:23;26.20;;;6.07;;
37851;SDS011;23691;52.486;4.650;2024-01-27T14:37:49;31.15;;;8.32;;
37851;SDS011;23691;52.486;4.650;2024-01-27T14:40:25;29.35;;;5.57;;